createdAt,value
2019-06-01T00:01:15.996Z,102018.58
2019-06-01T00:03:46.500Z,102018.80
2019-06-01T00:06:16.450Z,102020.56
2019-06-01T00:08:47.222Z,102018.59
2019-06-01T00:11:17.101Z,102028.63
2019-06-01T00:13:47.709Z,102014.62
2019-06-01T00:16:17.601Z,102018.39
2019-06-01T00:18:48.331Z,102016.97
2019-06-01T00:21:18.241Z,102010.52
2019-06-01T00:23:48.699Z,102018.46
2019-06-01T00:26:18.584Z,102019.73
2019-06-01T00:28:48.429Z,102015.09
2019-06-01T00:31:18.183Z,102014.02
2019-06-01T00:33:49.513Z,102014.37
2019-06-01T00:36:19.459Z,102012.33
2019-06-01T00:38:50.005Z,102013.69
2019-06-01T00:41:19.946Z,102004.45
2019-06-01T00:43:50.478Z,101998.83
2019-06-01T00:46:20.256Z,101985.06
2019-06-01T00:48:50.101Z,101994.67
2019-06-01T00:51:19.962Z,101997.12
2019-06-01T00:53:49.897Z,102000.23
2019-06-01T00:56:19.873Z,101997.25
2019-06-01T00:58:49.932Z,101997.53
2019-06-01T01:01:19.804Z,101986.09
2019-06-01T01:03:50.229Z,101984.97
2019-06-01T01:06:20.334Z,101992.16
2019-06-01T01:08:50.940Z,101988.35
2019-06-01T01:11:20.865Z,101989.89
2019-06-01T01:13:51.302Z,101988.45
2019-06-01T01:16:21.181Z,101989.00
2019-06-01T01:18:51.918Z,101993.61
2019-06-01T01:21:22.402Z,101996.43
2019-06-01T01:23:53.177Z,101997.11
2019-06-01T01:26:23.332Z,101993.53
2019-06-01T01:28:53.188Z,101988.48
2019-06-01T01:31:22.933Z,101989.38
2019-06-01T01:33:53.435Z,101986.19
2019-06-01T01:36:23.260Z,101982.20
2019-06-01T01:38:54.346Z,101988.89
2019-06-01T01:41:24.398Z,101986.67
2019-06-01T01:43:54.610Z,101989.02
2019-06-01T01:46:24.566Z,101981.92
2019-06-01T01:48:54.405Z,101989.72
2019-06-01T01:51:24.369Z,101987.77
2019-06-01T01:53:54.720Z,101981.73
2019-06-01T01:56:24.526Z,101984.38
2019-06-01T01:58:54.460Z,101986.31
2019-06-01T02:01:24.508Z,101984.83
2019-06-01T02:03:55.513Z,101978.48
2019-06-01T02:06:28.984Z,101980.14
2019-06-01T02:08:57.582Z,101977.02
2019-06-01T02:11:27.587Z,101974.17
2019-06-01T02:13:57.921Z,101971.91
2019-06-01T02:16:27.953Z,101969.42
2019-06-01T02:18:58.882Z,101974.41
2019-06-01T02:21:29.273Z,101971.77
2019-06-01T02:23:59.319Z,101971.47
2019-06-01T02:26:29.283Z,101962.80
2019-06-01T02:28:59.577Z,101961.73
2019-06-01T02:31:40.673Z,101962.98
2019-06-01T02:34:03.401Z,101957.16
2019-06-01T02:36:32.639Z,101956.06
2019-06-01T02:39:04.672Z,101961.05
2019-06-01T02:41:34.658Z,101969.63
2019-06-01T02:44:06.478Z,101959.22
2019-06-01T02:46:36.480Z,101950.69
2019-06-01T02:49:06.535Z,101952.48
2019-06-01T02:51:36.423Z,101952.53
2019-06-01T02:54:06.436Z,101951.08
2019-06-01T02:56:36.322Z,101956.24
2019-06-01T02:59:06.850Z,101953.69
2019-06-01T03:01:38.133Z,101960.65
2019-06-01T03:04:10.359Z,101949.47
2019-06-01T03:06:42.436Z,101943.57
2019-06-01T03:09:13.006Z,101944.94
2019-06-01T03:11:42.995Z,101947.63
2019-06-01T03:14:13.315Z,101948.69
2019-06-01T03:16:44.145Z,101943.39
2019-06-01T03:19:16.754Z,101933.10
2019-06-01T03:21:49.868Z,101937.75
2019-06-01T03:24:22.943Z,101934.00
2019-06-01T03:26:54.679Z,101936.08
2019-06-01T03:29:27.803Z,101932.56
2019-06-01T03:32:17.817Z,101933.44
2019-06-01T03:34:29.266Z,101926.22
2019-06-01T03:37:00.864Z,101923.45
2019-06-01T03:39:31.699Z,101926.73
2019-06-01T03:42:03.178Z,101925.84
2019-06-01T03:44:33.179Z,101930.68
2019-06-01T03:47:03.793Z,101929.24
2019-06-01T03:49:33.989Z,101929.73
2019-06-01T03:52:04.835Z,101924.31
2019-06-01T03:54:34.748Z,101928.86
2019-06-01T03:57:05.341Z,101930.83
2019-06-01T03:59:35.318Z,101925.23
2019-06-01T04:02:05.266Z,101922.73
2019-06-01T04:04:35.179Z,101916.66
2019-06-01T04:07:06.344Z,101919.45
2019-06-01T04:09:36.224Z,101917.36
2019-06-01T04:12:06.242Z,101922.57
2019-06-01T04:14:36.247Z,101925.02
2019-06-01T04:17:08.013Z,101920.25
2019-06-01T04:19:38.187Z,101920.53
2019-06-01T04:22:12.247Z,101915.91
2019-06-01T04:24:42.194Z,101918.64
2019-06-01T04:27:12.396Z,101928.47
2019-06-01T04:29:42.501Z,101928.41
2019-06-01T04:32:12.836Z,101930.84
2019-06-01T04:34:42.996Z,101935.19
2019-06-01T04:37:13.340Z,101938.20
2019-06-01T04:39:43.262Z,101938.52
2019-06-01T04:42:13.941Z,101936.77
2019-06-01T04:44:43.880Z,101944.00
2019-06-01T04:47:14.584Z,101940.78
2019-06-01T04:49:44.730Z,101936.91
2019-06-01T04:52:15.264Z,101928.84
2019-06-01T04:54:45.131Z,101934.33
2019-06-01T04:57:15.150Z,101932.38
2019-06-01T04:59:45.044Z,101929.25
2019-06-01T05:02:15.232Z,101932.13
2019-06-01T05:04:45.179Z,101936.33
2019-06-01T05:07:15.520Z,101931.52
2019-06-01T05:09:45.450Z,101928.80
2019-06-01T05:12:15.641Z,101925.20
2019-06-01T05:14:45.710Z,101916.08
2019-06-01T05:17:16.725Z,101919.81
2019-06-01T05:19:46.783Z,101912.88
2019-06-01T05:22:16.843Z,101912.51
2019-06-01T05:24:46.698Z,101913.34
2019-06-01T05:27:17.370Z,101926.74
2019-06-01T05:29:47.421Z,101913.74
2019-06-01T05:32:17.216Z,101912.58
2019-06-01T05:34:46.969Z,101911.13
2019-06-01T05:37:16.785Z,101901.13
2019-06-01T05:39:46.752Z,101909.39
2019-06-01T05:42:16.972Z,101901.73
2019-06-01T05:44:47.029Z,101899.96
2019-06-01T05:47:16.780Z,101897.92
2019-06-01T05:49:46.630Z,101893.44
2019-06-01T05:52:16.732Z,101886.77
2019-06-01T05:54:46.603Z,101882.20
2019-06-01T05:57:16.836Z,101884.55
2019-06-01T05:59:46.620Z,101883.17
2019-06-01T06:02:17.468Z,101881.73
2019-06-01T06:04:47.429Z,101876.88
2019-06-01T06:07:17.189Z,101872.81
2019-06-01T06:09:47.015Z,101862.81
2019-06-01T06:12:17.310Z,101863.70
2019-06-01T06:14:47.439Z,101870.03
2019-06-01T06:17:18.244Z,101868.47
2019-06-01T06:19:48.742Z,101857.03
2019-06-01T06:22:18.583Z,101863.63
2019-06-01T06:24:48.347Z,101858.77
2019-06-01T06:27:18.578Z,101858.19
2019-06-01T06:29:48.484Z,101853.11
2019-06-01T06:32:19.252Z,101854.87
2019-06-01T06:34:49.188Z,101832.52
2019-06-01T06:37:19.745Z,101834.66
2019-06-01T06:39:49.695Z,101847.65
2019-06-01T06:42:20.353Z,101848.14
2019-06-01T06:44:50.190Z,101848.14
2019-06-01T06:47:20.933Z,101842.23
2019-06-01T06:49:50.757Z,101848.68
2019-06-01T06:52:21.588Z,101853.91
2019-06-01T06:54:51.331Z,101864.63
2019-06-01T06:57:22.123Z,101876.63
2019-06-01T06:59:51.915Z,101855.94
2019-06-01T07:02:29.492Z,101867.52
2019-06-01T07:04:59.209Z,101833.48
2019-06-01T07:07:29.033Z,101838.65
2019-06-01T07:09:58.810Z,101852.23
2019-06-01T07:12:28.594Z,101867.28
2019-06-01T07:14:58.267Z,101872.30
2019-06-01T07:17:28.027Z,101856.42
2019-06-01T07:19:57.744Z,101859.12
2019-06-01T07:22:27.927Z,101869.22
2019-06-01T07:24:57.971Z,101858.22
2019-06-01T07:27:28.292Z,101868.58
2019-06-01T07:29:58.335Z,101866.22
2019-06-01T07:32:28.654Z,101863.64
2019-06-01T07:35:01.251Z,101866.79
2019-06-01T07:37:32.738Z,101870.79
2019-06-01T07:40:02.789Z,101869.03
2019-06-01T07:42:33.083Z,101864.60
2019-06-01T07:45:03.338Z,101865.77
2019-06-01T07:47:34.056Z,101864.84
2019-06-01T07:50:05.790Z,101867.62
2019-06-01T07:52:35.622Z,101867.87
2019-06-01T07:55:06.371Z,101861.16
2019-06-01T07:57:36.218Z,101857.77
2019-06-01T08:00:09.731Z,101857.35
2019-06-01T08:02:40.746Z,101848.95
2019-06-01T08:05:10.708Z,101852.05
2019-06-01T08:07:40.471Z,101859.58
2019-06-01T08:10:10.982Z,101866.81
2019-06-01T08:12:40.772Z,101864.95
2019-06-01T08:15:10.777Z,101856.61
2019-06-01T08:17:40.707Z,101858.34
2019-06-01T08:20:12.021Z,101860.83
2019-06-01T08:22:41.840Z,101865.86
2019-06-01T08:25:11.815Z,101862.81
2019-06-01T08:27:41.734Z,101869.75
2019-06-01T08:30:11.750Z,101850.09
2019-06-01T08:32:41.995Z,101851.49
2019-06-01T08:35:11.947Z,101855.70
2019-06-01T08:37:42.051Z,101848.67
2019-06-01T08:40:12.020Z,101841.36
2019-06-01T08:42:41.950Z,101841.36
2019-06-01T08:45:11.769Z,101841.61
2019-06-01T08:47:41.559Z,101839.98
2019-06-01T08:50:12.180Z,101834.98
2019-06-01T08:52:42.007Z,101839.05
2019-06-01T08:55:12.174Z,101839.05
2019-06-01T08:57:41.912Z,101834.02
2019-06-01T09:00:12.156Z,101834.02
2019-06-01T09:02:42.219Z,101834.01
2019-06-01T09:05:23.802Z,101842.30
2019-06-01T09:07:44.000Z,101837.51
2019-06-01T09:10:14.036Z,101833.69
2019-06-01T09:12:43.855Z,101833.69
2019-06-01T09:15:14.055Z,101844.28
2019-06-01T09:17:43.911Z,101838.47
2019-06-01T09:20:14.113Z,101840.13
2019-06-01T09:22:47.846Z,101830.09
2019-06-01T09:25:15.690Z,101830.09
2019-06-01T09:27:45.480Z,101841.17
2019-06-01T09:30:15.441Z,101839.50
2019-06-01T09:32:45.170Z,101848.55
2019-06-01T09:35:15.101Z,101847.55
2019-06-01T09:37:45.869Z,101844.38
2019-06-01T09:40:16.245Z,101850.89
2019-06-01T09:42:46.042Z,101845.08
2019-06-01T09:45:16.066Z,101838.67
2019-06-01T09:47:46.485Z,101838.67
2019-06-01T09:50:17.162Z,101845.73
2019-06-01T09:52:47.087Z,101841.28
2019-06-01T09:55:17.026Z,101854.02
2019-06-01T09:57:47.022Z,101853.19
2019-06-01T10:00:17.562Z,101848.30
2019-06-01T10:02:47.625Z,101851.45
2019-06-01T10:05:17.585Z,101852.17
2019-06-01T10:07:47.408Z,101852.97
2019-06-01T10:10:17.582Z,101860.07
2019-06-01T10:12:47.456Z,101858.59
2019-06-01T10:15:17.524Z,101854.44
2019-06-01T10:17:47.571Z,101859.26
2019-06-01T10:20:17.504Z,101857.45
2019-06-01T10:22:47.317Z,101861.04
2019-06-01T10:25:17.253Z,101860.36
2019-06-01T10:27:46.981Z,101858.31
2019-06-01T10:30:17.023Z,101859.52
2019-06-01T10:32:46.913Z,101862.86
2019-06-01T10:35:16.852Z,101862.20
2019-06-01T10:37:46.682Z,101868.27
2019-06-01T10:40:16.754Z,101864.03
2019-06-01T10:42:46.664Z,101858.31
2019-06-01T10:45:17.092Z,101858.56
2019-06-01T10:47:46.946Z,101854.53
2019-06-01T10:50:17.758Z,101854.17
2019-06-01T10:52:47.606Z,101862.92
2019-06-01T10:55:17.490Z,101854.71
2019-06-01T10:57:47.393Z,101854.77
2019-06-01T11:00:17.861Z,101861.73
2019-06-01T11:02:47.866Z,101869.11
2019-06-01T11:05:17.775Z,101856.72
2019-06-01T11:07:47.629Z,101870.09
2019-06-01T11:10:17.602Z,101864.17
2019-06-01T11:12:47.382Z,101869.27
2019-06-01T11:15:17.663Z,101873.87
2019-06-01T11:17:47.484Z,101873.70
2019-06-01T11:20:18.993Z,101877.45
2019-06-01T11:22:48.933Z,101866.58
2019-06-01T11:25:18.894Z,101869.38
2019-06-01T11:27:48.973Z,101875.98
2019-06-01T11:30:18.978Z,101875.20
2019-06-01T11:32:48.838Z,101867.47
2019-06-01T11:35:18.773Z,101878.61
2019-06-01T11:37:48.628Z,101873.66
2019-06-01T11:40:18.751Z,101887.66
2019-06-01T11:42:48.575Z,101883.38
2019-06-01T11:45:18.516Z,101897.41
2019-06-01T11:47:48.362Z,101896.71
2019-06-01T11:50:18.381Z,101892.20
2019-06-01T11:52:48.144Z,101898.32
2019-06-01T11:55:18.082Z,101897.02
2019-06-01T11:57:47.923Z,101903.77
2019-06-01T12:00:20.584Z,101900.14
2019-06-01T12:02:50.536Z,101902.06
2019-06-01T12:05:21.756Z,101901.48
2019-06-01T12:07:51.567Z,101903.86
2019-06-01T12:10:21.554Z,101896.20
2019-06-01T12:12:51.520Z,101895.64
2019-06-01T12:15:21.542Z,101903.89
2019-06-01T12:17:51.409Z,101897.36
2019-06-01T12:20:21.330Z,101900.41
2019-06-01T12:22:51.065Z,101890.97
2019-06-01T12:25:21.174Z,101897.47
2019-06-01T12:27:51.007Z,101907.09
2019-06-01T12:30:21.183Z,101901.63
2019-06-01T12:32:51.106Z,101898.98
2019-06-01T12:35:21.044Z,101905.53
2019-06-01T12:38:05.619Z,101907.83
2019-06-01T12:40:22.575Z,101902.60
2019-06-01T12:42:52.520Z,101907.27
2019-06-01T12:45:23.402Z,101909.09
2019-06-01T12:47:58.104Z,101902.58
2019-06-01T12:50:25.356Z,101904.16
2019-06-01T12:52:55.269Z,101903.36
2019-06-01T12:55:25.138Z,101907.05
2019-06-01T12:57:55.034Z,101908.59
2019-06-01T13:00:25.084Z,101886.94
2019-06-01T13:03:06.760Z,101888.48
2019-06-01T13:05:26.633Z,101893.19
2019-06-01T13:08:02.315Z,101898.33
2019-06-01T13:10:28.021Z,101886.59
2019-06-01T13:12:57.773Z,101886.81
2019-06-01T13:15:27.542Z,101886.05
2019-06-01T13:17:57.583Z,101880.28
2019-06-01T13:20:27.296Z,101881.94
2019-06-01T13:22:57.128Z,101880.44
2019-06-01T13:25:26.989Z,101877.90
2019-06-01T13:27:56.802Z,101876.66
2019-06-01T13:30:26.660Z,101881.28
2019-06-01T13:32:56.398Z,101883.61
2019-06-01T13:35:26.316Z,101885.98
2019-06-01T13:38:10.447Z,101885.44
2019-06-01T13:40:27.522Z,101887.94
2019-06-01T13:42:57.281Z,101882.16
2019-06-01T13:45:27.121Z,101877.73
2019-06-01T13:47:56.918Z,101873.70
2019-06-01T13:50:26.712Z,101876.25
2019-06-01T13:52:56.603Z,101865.69
2019-06-01T13:55:26.336Z,101869.90
2019-06-01T13:57:56.121Z,101881.29
2019-06-01T14:00:30.614Z,101881.08
2019-06-01T14:02:58.406Z,101875.14
2019-06-01T14:05:28.205Z,101879.87
2019-06-01T14:07:57.958Z,101879.87
2019-06-01T14:10:27.750Z,101883.00
2019-06-01T14:12:57.498Z,101882.41
2019-06-01T14:15:27.370Z,101883.03
2019-06-01T14:17:57.281Z,101887.92
2019-06-01T14:20:27.035Z,101879.84
2019-06-01T14:22:56.784Z,101879.84
2019-06-01T14:25:26.537Z,101887.35
2019-06-01T14:27:56.481Z,101877.24
2019-06-01T14:30:26.337Z,101879.81
2019-06-01T14:32:56.937Z,101886.18
2019-06-01T14:35:26.693Z,101876.83
2019-06-01T14:37:57.022Z,101878.50
2019-06-01T14:40:27.029Z,101887.80
2019-06-01T14:42:57.791Z,101886.39
2019-06-01T14:45:27.744Z,101879.06
2019-06-01T14:47:57.657Z,101883.92
2019-06-01T14:50:27.432Z,101881.23
2019-06-01T14:52:57.922Z,101881.23
2019-06-01T14:55:27.847Z,101889.88
2019-06-01T14:57:58.458Z,101891.34
2019-06-01T15:00:28.246Z,101887.33
2019-06-01T15:02:58.460Z,101891.08
2019-06-01T15:05:28.164Z,101886.45
2019-06-01T15:07:58.999Z,101882.55
2019-06-01T15:10:29.072Z,101878.76
2019-06-01T15:13:03.150Z,101878.76
2019-06-01T15:15:30.625Z,101880.74
2019-06-01T15:18:03.898Z,101884.87
2019-06-01T15:20:31.816Z,101874.84
2019-06-01T15:23:03.548Z,101875.08
2019-06-01T15:25:32.893Z,101877.57
2019-06-01T15:28:04.096Z,101866.23
2019-06-01T15:30:34.019Z,101872.45
2019-06-01T15:33:03.780Z,101874.27
2019-06-01T15:35:33.466Z,101879.20
2019-06-01T15:38:04.730Z,101869.96
2019-06-01T15:40:34.533Z,101873.28
2019-06-01T15:43:04.378Z,101875.68
2019-06-01T15:45:34.129Z,101871.37
2019-06-01T15:48:03.986Z,101870.09
2019-06-01T15:50:33.669Z,101876.22
2019-06-01T15:53:03.516Z,101876.22
2019-06-01T15:55:33.223Z,101867.25
2019-06-01T15:58:03.229Z,101860.20
2019-06-01T16:00:32.970Z,101861.66
2019-06-01T16:03:05.948Z,101863.45
2019-06-01T16:05:35.695Z,101868.77
2019-06-01T16:08:05.542Z,101870.13
2019-06-01T16:10:35.223Z,101866.95
2019-06-01T16:13:05.153Z,101864.27
2019-06-01T16:15:34.836Z,101866.48
2019-06-01T16:18:04.706Z,101869.17
2019-06-01T16:20:34.506Z,101869.17
2019-06-01T16:23:05.256Z,101868.06
2019-06-01T16:25:35.076Z,101868.06
2019-06-01T16:28:05.756Z,101868.65
2019-06-01T16:30:35.585Z,101875.21
2019-06-01T16:33:05.426Z,101875.21
2019-06-01T16:35:35.118Z,101883.13
2019-06-01T16:38:05.893Z,101871.39
2019-06-01T16:40:35.644Z,101872.09
2019-06-01T16:43:05.806Z,101872.09
2019-06-01T16:45:35.666Z,101877.41
2019-06-01T16:48:06.609Z,101866.38
2019-06-01T16:50:36.586Z,101872.75
2019-06-01T16:53:06.453Z,101873.86
2019-06-01T16:55:36.278Z,101866.45
2019-06-01T16:58:06.683Z,101869.03
2019-06-01T17:00:36.717Z,101868.41
2019-06-01T17:03:10.323Z,101872.34
2019-06-01T17:05:38.524Z,101867.13
2019-06-01T17:08:08.489Z,101869.02
2019-06-01T17:10:38.315Z,101865.25
2019-06-01T17:13:08.975Z,101866.39
2019-06-01T17:15:38.900Z,101864.33
2019-06-01T17:18:10.473Z,101865.08
2019-06-01T17:20:47.995Z,101862.50
2019-06-01T17:23:26.838Z,101861.70
2019-06-01T17:25:49.357Z,101865.62
2019-06-01T17:28:19.219Z,101868.95
2019-06-01T17:30:49.304Z,101869.78
2019-06-01T17:33:19.460Z,101865.23
2019-06-01T17:35:49.288Z,101861.06
2019-06-01T17:38:19.211Z,101858.73
2019-06-01T17:40:49.080Z,101867.64
2019-06-01T17:43:18.938Z,101864.63
2019-06-01T17:45:48.793Z,101860.13
2019-06-01T17:48:26.402Z,101857.94
2019-06-01T17:50:50.036Z,101855.80
2019-06-01T17:53:19.854Z,101858.95
2019-06-01T17:55:49.649Z,101851.78
2019-06-01T17:58:19.549Z,101850.48
2019-06-01T18:00:49.677Z,101847.36
2019-06-01T18:03:20.581Z,101851.85
2019-06-01T18:05:50.471Z,101847.73
2019-06-01T18:08:20.320Z,101844.89
2019-06-01T18:10:54.677Z,101847.22
2019-06-01T18:13:21.860Z,101859.61
2019-06-01T18:15:51.733Z,101853.02
2019-06-01T18:18:21.536Z,101854.73
2019-06-01T18:20:51.642Z,101863.60
2019-06-01T18:23:21.411Z,101866.91
2019-06-01T18:25:51.870Z,101857.56
2019-06-01T18:28:21.874Z,101857.84
2019-06-01T18:30:51.766Z,101858.97
2019-06-01T18:33:21.911Z,101851.41
2019-06-01T18:35:51.821Z,101855.43
2019-06-01T18:38:21.677Z,101859.97
2019-06-01T18:40:51.674Z,101862.34
2019-06-01T18:43:21.405Z,101856.90
2019-06-01T18:45:51.456Z,101857.53
2019-06-01T18:48:21.667Z,101855.67
2019-06-01T18:50:51.584Z,101851.81
2019-06-01T18:53:21.559Z,101865.32
2019-06-01T18:55:51.532Z,101862.46
2019-06-01T18:58:21.497Z,101860.72
2019-06-01T19:00:51.256Z,101863.59
2019-06-01T19:03:21.348Z,101859.63
2019-06-01T19:05:51.101Z,101862.73
2019-06-01T19:08:20.867Z,101867.22
2019-06-01T19:10:51.006Z,101869.36
2019-06-01T19:13:21.092Z,101871.71
2019-06-01T19:15:50.854Z,101870.72
2019-06-01T19:18:20.710Z,101863.22
2019-06-01T19:20:50.468Z,101871.57
2019-06-01T19:23:22.663Z,101866.95
2019-06-01T19:25:52.013Z,101865.59
2019-06-01T19:28:21.842Z,101868.20
2019-06-01T19:30:51.738Z,101865.33
2019-06-01T19:33:21.550Z,101870.68
2019-06-01T19:35:53.218Z,101871.28
2019-06-01T19:38:23.195Z,101875.51
2019-06-01T19:40:53.039Z,101876.68
2019-06-01T19:43:22.769Z,101883.67
2019-06-01T19:45:52.773Z,101885.48
2019-06-01T19:48:22.566Z,101881.86
2019-06-01T19:50:52.330Z,101880.59
2019-06-01T19:53:22.128Z,101883.28
2019-06-01T19:55:51.943Z,101877.80
2019-06-01T19:58:22.388Z,101886.97
2019-06-01T20:00:52.398Z,101889.84
2019-06-01T20:03:23.789Z,101897.11
2019-06-01T20:05:53.784Z,101899.66
2019-06-01T20:08:23.566Z,101895.08
2019-06-01T20:10:53.446Z,101888.31
2019-06-01T20:13:23.203Z,101886.52
2019-06-01T20:15:52.956Z,101884.75
2019-06-01T20:18:23.034Z,101891.59
2019-06-01T20:20:52.953Z,101886.20
2019-06-01T20:23:22.777Z,101890.01
2019-06-01T20:25:52.553Z,101884.67
2019-06-01T20:28:22.436Z,101894.80
2019-06-01T20:30:52.346Z,101892.64
2019-06-01T20:33:22.742Z,101890.98
2019-06-01T20:35:52.893Z,101895.54
2019-06-01T20:38:23.518Z,101895.22
2019-06-01T20:40:53.774Z,101897.20
2019-06-01T20:43:23.580Z,101895.67
2019-06-01T20:45:56.653Z,101892.64
2019-06-01T20:48:24.890Z,101896.33
2019-06-01T20:50:54.671Z,101894.25
2019-06-01T20:53:24.413Z,101892.59
2019-06-01T20:55:54.223Z,101887.13
2019-06-01T20:58:24.997Z,101878.35
2019-06-01T21:00:55.848Z,101885.78
2019-06-01T21:03:25.618Z,101878.41
2019-06-01T21:05:55.417Z,101884.27
2019-06-01T21:08:25.216Z,101889.27
2019-06-01T21:10:54.993Z,101892.21
2019-06-01T21:13:24.802Z,101894.22
2019-06-01T21:15:54.582Z,101890.72
2019-06-01T21:18:25.233Z,101890.27
2019-06-01T21:20:55.301Z,101892.61
2019-06-01T21:23:25.406Z,101893.42
2019-06-01T21:25:55.273Z,101890.81
2019-06-01T21:28:25.800Z,101879.00
2019-06-01T21:30:55.719Z,101881.91
2019-06-01T21:33:28.602Z,101877.37
2019-06-01T21:35:56.848Z,101882.16
2019-06-01T21:38:26.588Z,101882.16
2019-06-01T21:40:56.271Z,101881.73
2019-06-01T21:43:34.980Z,101871.02
2019-06-01T21:45:57.658Z,101871.22
2019-06-01T21:48:27.472Z,101876.12
2019-06-01T21:50:57.244Z,101876.33
2019-06-01T21:53:26.972Z,101883.66
2019-06-01T21:55:56.717Z,101874.11
2019-06-01T21:58:26.736Z,101870.31
2019-06-01T22:00:56.669Z,101867.14
2019-06-01T22:03:27.289Z,101873.41
2019-06-01T22:05:57.360Z,101865.62
2019-06-01T22:08:27.585Z,101859.19
2019-06-01T22:10:57.515Z,101853.94
2019-06-01T22:13:28.837Z,101850.61
2019-06-01T22:15:58.737Z,101850.73
2019-06-01T22:18:28.487Z,101853.83
2019-06-01T22:20:58.333Z,101851.30
2019-06-01T22:23:28.292Z,101852.31
2019-06-01T22:25:58.142Z,101846.86
2019-06-01T22:28:28.624Z,101837.30
2019-06-01T22:30:58.489Z,101828.72
2019-06-01T22:33:28.805Z,101811.63
2019-06-01T22:35:58.703Z,101806.00
2019-06-01T22:38:28.427Z,101799.97
2019-06-01T22:40:58.253Z,101797.94
2019-06-01T22:43:45.257Z,101804.27
2019-06-01T22:45:59.636Z,101819.69
2019-06-01T22:48:29.488Z,101827.87
2019-06-01T22:50:59.507Z,101837.02
2019-06-01T22:53:29.385Z,101843.44
2019-06-01T22:55:59.146Z,101850.13
2019-06-01T22:58:29.616Z,101855.69
2019-06-01T23:00:59.784Z,101855.77
2019-06-01T23:03:30.182Z,101866.78
2019-06-01T23:06:00.093Z,101865.42
2019-06-01T23:08:29.975Z,101855.98
2019-06-01T23:10:59.730Z,101858.10
2019-06-01T23:13:30.322Z,101856.97
2019-06-01T23:16:00.188Z,101854.98
2019-06-01T23:18:30.052Z,101848.77
2019-06-01T23:20:59.832Z,101844.50
2019-06-01T23:23:30.162Z,101843.23
2019-06-01T23:26:00.117Z,101844.32
2019-06-01T23:28:30.418Z,101833.98
2019-06-01T23:31:00.373Z,101821.22
2019-06-01T23:33:30.985Z,101816.47
2019-06-01T23:36:00.833Z,101814.70
2019-06-01T23:38:30.857Z,101811.27
2019-06-01T23:41:00.729Z,101808.86
2019-06-01T23:43:30.927Z,101808.19
2019-06-01T23:46:00.745Z,101807.31
2019-06-01T23:48:31.298Z,101811.00
2019-06-01T23:51:01.219Z,101801.88
2019-06-01T23:53:31.620Z,101802.95
2019-06-01T23:56:01.783Z,101807.05
2019-06-01T23:58:32.622Z,101811.61
